Time;durP1;ratioP1;P1;durP2;ratioP2;P2;SDS_P1;SDS_P2;PMS_P1;PMS_P2;Temp;Humidity;BMP_temperature;BMP_pressure;BME280_temperature;BME280_humidity;BME280_pressure;Samples;Min_cycle;Max_cycle;Signal;HPM_P1;HPM_P2
2023/12/20 00:01:18;;;;;;;4.22;3.83;;;5.40;99.90;;;;;;5029450;28;20211;-56
2023/12/20 00:03:46;;;;;;;4.88;4.00;;;5.40;99.90;;;;;;5032141;28;20207;-56
2023/12/20 00:06:15;;;;;;;5.82;4.18;;;5.40;99.90;;;;;;5036642;28;20540;-55
2023/12/20 00:08:44;;;;;;;3.90;3.60;;;5.40;99.90;;;;;;5031411;28;20666;-56
2023/12/20 00:11:12;;;;;;;5.15;3.78;;;5.40;99.90;;;;;;5039166;28;20237;-55
2023/12/20 00:13:40;;;;;;;3.83;3.53;;;5.40;99.90;;;;;;5036066;28;20214;-55
2023/12/20 00:16:08;;;;;;;3.30;3.10;;;5.40;99.90;;;;;;5033681;28;20294;-54
2023/12/20 00:18:36;;;;;;;3.47;3.00;;;5.40;99.90;;;;;;5041695;28;20226;-55
2023/12/20 00:21:04;;;;;;;2.97;2.78;;;5.40;99.90;;;;;;5033559;28;20211;-55
2023/12/20 00:23:33;;;;;;;5.18;3.28;;;5.40;99.90;;;;;;5038755;28;20302;-55
2023/12/20 00:26:01;;;;;;;3.33;3.05;;;5.40;99.90;;;;;;5041285;28;20682;-55
2023/12/20 00:28:29;;;;;;;3.00;2.80;;;5.40;99.90;;;;;;5051223;28;20291;-55
2023/12/20 00:30:57;;;;;;;3.15;2.83;;;5.30;99.90;;;;;;5051502;28;20205;-56
2023/12/20 00:33:25;;;;;;;2.67;2.58;;;5.30;99.90;;;;;;5051746;28;20202;-56
2023/12/20 00:35:53;;;;;;;3.30;3.00;;;5.40;99.90;;;;;;5050932;28;20206;-55
2023/12/20 00:38:21;;;;;;;2.85;2.65;;;5.40;99.90;;;;;;5051064;28;20226;-55
2023/12/20 00:40:50;;;;;;;7.10;2.72;;;5.40;99.90;;;;;;5048089;28;20300;-55
2023/12/20 00:43:18;;;;;;;3.75;2.80;;;5.40;99.90;;;;;;5051424;28;20251;-55
2023/12/20 00:45:46;;;;;;;3.83;2.83;;;5.40;99.90;;;;;;5051207;28;20695;-55
2023/12/20 00:48:14;;;;;;;2.75;2.47;;;5.40;99.90;;;;;;5051303;28;20229;-55
2023/12/20 00:50:42;;;;;;;3.25;2.85;;;5.40;99.90;;;;;;5051124;28;20216;-55
2023/12/20 00:53:10;;;;;;;2.78;2.58;;;5.40;99.90;;;;;;5051356;28;20241;-55
2023/12/20 00:55:38;;;;;;;2.38;2.17;;;5.40;99.90;;;;;;5050973;28;20210;-55
2023/12/20 00:58:07;;;;;;;2.88;2.53;;;5.40;99.90;;;;;;5038046;28;20699;-56
2023/12/20 01:00:35;;;;;;;3.05;2.85;;;5.40;99.90;;;;;;5030800;28;20238;-55
2023/12/20 01:03:03;;;;;;;2.55;2.35;;;5.40;99.90;;;;;;5038794;28;20233;-52
2023/12/20 01:05:31;;;;;;;2.55;2.45;;;5.40;99.90;;;;;;5036335;28;20675;-52
2023/12/20 01:07:59;;;;;;;3.25;2.95;;;5.40;99.90;;;;;;5039284;28;20237;-52
2023/12/20 01:10:29;;;;;;;3.88;3.25;;;5.40;99.90;;;;;;5038130;28;20203;-55
2023/12/20 01:12:57;;;;;;;2.92;2.75;;;5.40;99.90;;;;;;5048727;28;20217;-56
2023/12/20 01:15:26;;;;;;;3.20;3.00;;;5.30;99.90;;;;;;5050730;28;20198;-55
2023/12/20 01:17:54;;;;;;;2.65;2.55;;;5.30;99.90;;;;;;5050835;28;20264;-59
2023/12/20 01:20:22;;;;;;;6.72;2.78;;;5.40;99.90;;;;;;5050817;28;20202;-59
2023/12/20 01:22:50;;;;;;;3.05;2.67;;;5.40;99.90;;;;;;5053839;28;20231;-57
2023/12/20 01:25:17;;;;;;;3.38;2.85;;;5.40;99.90;;;;;;5038508;28;20230;-57
2023/12/20 01:27:46;;;;;;;3.15;2.85;;;5.40;99.90;;;;;;5054974;28;20230;-57
2023/12/20 01:30:15;;;;;;;3.38;3.08;;;5.40;99.90;;;;;;5054723;28;20202;-56
2023/12/20 01:32:45;;;;;;;3.20;2.85;;;5.40;99.90;;;;;;5052495;28;20206;-57
2023/12/20 01:35:13;;;;;;;2.60;2.40;;;5.40;99.90;;;;;;5045519;28;20221;-57
2023/12/20 01:37:40;;;;;;;2.78;2.58;;;5.40;99.90;;;;;;5045232;28;20226;-57
2023/12/20 01:40:09;;;;;;;4.32;2.80;;;5.40;99.90;;;;;;5050122;28;20296;-55
2023/12/20 01:42:37;;;;;;;3.13;2.92;;;5.40;99.90;;;;;;5054667;28;20296;-57
2023/12/20 01:45:06;;;;;;;2.42;2.33;;;5.40;99.90;;;;;;5044478;28;20207;-56
2023/12/20 01:47:34;;;;;;;2.75;2.55;;;5.40;99.90;;;;;;5042658;28;20273;-56
2023/12/20 01:50:03;;;;;;;2.55;2.45;;;5.40;99.90;;;;;;5052344;28;20567;-56
2023/12/20 01:52:33;;;;;;;2.08;1.98;;;5.50;99.90;;;;;;5055002;28;20225;-57
2023/12/20 01:55:02;;;;;;;2.00;1.90;;;5.50;99.90;;;;;;5054276;28;20256;-56
2023/12/20 01:57:30;;;;;;;3.72;2.10;;;5.50;99.90;;;;;;5046111;28;20596;-55
2023/12/20 01:59:58;;;;;;;1.98;1.88;;;5.50;99.90;;;;;;5045426;28;20653;-55
2023/12/20 02:02:26;;;;;;;1.65;1.60;;;5.50;99.90;;;;;;5045924;28;20202;-55
2023/12/20 02:04:54;;;;;;;1.95;1.85;;;5.50;99.90;;;;;;5054225;28;20206;-57
2023/12/20 02:07:24;;;;;;;2.00;1.90;;;5.50;99.90;;;;;;5054180;28;20229;-55
2023/12/20 02:09:52;;;;;;;2.33;2.20;;;5.50;99.90;;;;;;5054265;28;20230;-59
2023/12/20 02:12:20;;;;;;;2.05;1.67;;;5.50;99.90;;;;;;5053870;28;20609;-55
2023/12/20 02:14:48;;;;;;;2.20;2.10;;;5.50;99.90;;;;;;5053956;28;20257;-56
2023/12/20 02:17:16;;;;;;;2.15;2.05;;;5.50;99.90;;;;;;5053847;28;20230;-56
2023/12/20 02:19:44;;;;;;;2.22;2.13;;;5.50;99.90;;;;;;5054047;28;20679;-58
2023/12/20 02:22:14;;;;;;;3.38;1.90;;;5.50;99.90;;;;;;5051619;28;20589;-59
2023/12/20 02:24:42;;;;;;;1.95;1.85;;;5.50;99.90;;;;;;5028843;28;20602;-59
2023/12/20 02:27:10;;;;;;;2.00;1.55;;;5.50;99.90;;;;;;5033699;28;20234;-58
2023/12/20 02:29:38;;;;;;;2.20;2.00;;;5.50;99.90;;;;;;5033963;28;20261;-58
2023/12/20 02:32:06;;;;;;;1.73;1.70;;;5.50;99.90;;;;;;5033583;28;20735;-59
2023/12/20 02:34:34;;;;;;;1.70;1.60;;;5.50;99.90;;;;;;5032940;28;20249;-58
2023/12/20 02:37:02;;;;;;;1.70;1.60;;;5.40;99.90;;;;;;5033153;28;20230;-58
2023/12/20 02:39:31;;;;;;;2.80;1.80;;;5.50;99.90;;;;;;5028393;28;20210;-59
2023/12/20 02:41:59;;;;;;;1.92;1.52;;;5.50;99.90;;;;;;5033124;28;20360;-59
2023/12/20 02:44:27;;;;;;;1.40;1.40;;;5.50;99.90;;;;;;5027686;28;20202;-58
2023/12/20 02:46:54;;;;;;;2.00;1.90;;;5.50;99.90;;;;;;5033496;28;20206;-58
2023/12/20 02:49:22;;;;;;;1.45;1.38;;;5.50;99.90;;;;;;5025364;28;20225;-58
2023/12/20 02:51:50;;;;;;;1.77;1.60;;;5.50;99.90;;;;;;5033305;28;20683;-58
2023/12/20 02:54:18;;;;;;;2.88;1.77;;;5.40;99.90;;;;;;5033279;28;20204;-59
2023/12/20 02:56:47;;;;;;;1.58;1.58;;;5.40;99.90;;;;;;5033021;28;20206;-59
2023/12/20 02:59:15;;;;;;;1.10;1.10;;;5.40;99.90;;;;;;5033285;28;20203;-59
2023/12/20 03:01:44;;;;;;;2.15;1.80;;;5.40;99.90;;;;;;5033241;28;20294;-58
2023/12/20 03:04:12;;;;;;;4.10;1.95;;;5.40;99.90;;;;;;5032919;28;20206;-59
2023/12/20 03:06:39;;;;;;;1.30;1.30;;;5.40;99.90;;;;;;5033241;28;20206;-58
2023/12/20 03:09:07;;;;;;;2.40;1.92;;;5.50;99.90;;;;;;5033039;28;20276;-58
2023/12/20 03:11:35;;;;;;;2.03;1.92;;;5.40;99.90;;;;;;5033037;28;20208;-58
2023/12/20 03:14:04;;;;;;;1.77;1.67;;;5.40;99.90;;;;;;5033071;28;20573;-58
2023/12/20 03:16:33;;;;;;;1.80;1.73;;;5.40;99.90;;;;;;5032580;28;20246;-59
2023/12/20 03:19:03;;;;;;;1.70;1.60;;;5.40;99.90;;;;;;5033287;28;20223;-56
2023/12/20 03:21:31;;;;;;;4.32;1.48;;;5.50;99.90;;;;;;5032896;28;20578;-56
2023/12/20 03:23:59;;;;;;;1.65;1.60;;;5.50;99.90;;;;;;5030378;28;20215;-57
2023/12/20 03:26:27;;;;;;;1.50;1.50;;;5.50;99.90;;;;;;5032528;28;20242;-56
2023/12/20 03:28:55;;;;;;;1.58;1.48;;;5.50;99.90;;;;;;5032602;28;20304;-55
2023/12/20 03:31:24;;;;;;;1.50;1.50;;;5.50;99.90;;;;;;5032320;28;20206;-55
2023/12/20 03:33:53;;;;;;;1.60;1.60;;;5.50;99.90;;;;;;5032862;28;20592;-56
2023/12/20 03:36:21;;;;;;;1.52;1.50;;;5.50;99.90;;;;;;5032409;28;20234;-57
2023/12/20 03:38:49;;;;;;;1.77;1.67;;;5.50;99.90;;;;;;5028411;28;20251;-56
2023/12/20 03:41:17;;;;;;;2.05;1.70;;;5.50;99.90;;;;;;5031019;28;20675;-56
2023/12/20 03:43:44;;;;;;;2.53;1.70;;;5.50;99.90;;;;;;5032272;28;20238;-55
2023/12/20 03:46:12;;;;;;;1.88;1.60;;;5.50;99.90;;;;;;5031034;28;20672;-55
2023/12/20 03:48:41;;;;;;;1.40;1.40;;;5.50;99.90;;;;;;5032428;28;20288;-57
2023/12/20 03:51:09;;;;;;;1.30;1.30;;;5.50;99.90;;;;;;5032108;28;20253;-56
2023/12/20 03:53:37;;;;;;;1.73;1.52;;;5.50;99.90;;;;;;5032394;28;20249;-55
2023/12/20 03:56:05;;;;;;;1.42;1.33;;;5.50;99.90;;;;;;5031633;28;20737;-56
2023/12/20 03:58:33;;;;;;;1.63;1.63;;;5.60;99.90;;;;;;5032411;28;20357;-56
2023/12/20 04:01:02;;;;;;;1.80;1.63;;;5.50;99.90;;;;;;5032135;28;20293;-55
2023/12/20 04:03:30;;;;;;;1.60;1.50;;;5.50;99.90;;;;;;5032288;28;20211;-55
2023/12/20 04:05:59;;;;;;;1.60;1.50;;;5.50;99.90;;;;;;5031766;28;20300;-56
2023/12/20 04:08:27;;;;;;;1.95;1.45;;;5.50;99.90;;;;;;5032056;28;20273;-55
2023/12/20 04:10:55;;;;;;;1.50;1.40;;;5.60;99.90;;;;;;5031487;28;20262;-55
2023/12/20 04:13:23;;;;;;;2.33;1.73;;;5.50;99.90;;;;;;5032170;28;20241;-56
2023/12/20 04:15:51;;;;;;;1.70;1.67;;;5.50;99.90;;;;;;5031674;28;20213;-56
2023/12/20 04:18:19;;;;;;;2.38;1.45;;;5.50;99.90;;;;;;5031787;28;20322;-56
2023/12/20 04:20:47;;;;;;;1.85;1.73;;;5.50;99.90;;;;;;5032118;28;20230;-56
2023/12/20 04:23:16;;;;;;;1.45;1.35;;;5.40;99.90;;;;;;5031518;28;20211;-55
2023/12/20 04:25:44;;;;;;;2.42;1.67;;;5.50;99.90;;;;;;5031550;28;20929;-56
2023/12/20 04:28:12;;;;;;;1.95;1.85;;;5.40;99.90;;;;;;5031675;28;20379;-56
2023/12/20 04:30:40;;;;;;;1.42;1.40;;;5.50;99.90;;;;;;5031763;28;20230;-56
2023/12/20 04:33:08;;;;;;;1.70;1.60;;;5.50;99.90;;;;;;5031390;28;20741;-55
2023/12/20 04:35:36;;;;;;;1.60;1.52;;;5.40;99.90;;;;;;5031275;28;20650;-56
2023/12/20 04:38:04;;;;;;;1.77;1.67;;;5.40;99.90;;;;;;5031063;28;20684;-56
2023/12/20 04:40:33;;;;;;;1.42;1.42;;;5.40;99.90;;;;;;5025658;28;20264;-55
2023/12/20 04:43:01;;;;;;;1.40;1.40;;;5.40;99.90;;;;;;5031580;28;20213;-56
2023/12/20 04:45:28;;;;;;;1.00;1.00;;;5.40;99.90;;;;;;5031361;28;20203;-56
2023/12/20 04:47:56;;;;;;;1.15;1.15;;;5.40;99.90;;;;;;5031348;28;20226;-57
2023/12/20 04:50:24;;;;;;;2.65;0.95;;;5.40;99.90;;;;;;5031099;28;20261;-57
2023/12/20 04:52:52;;;;;;;1.05;0.90;;;5.40;99.90;;;;;;5031727;28;20263;-57
2023/12/20 04:55:20;;;;;;;0.77;0.77;;;5.30;99.90;;;;;;5031398;28;20298;-56
2023/12/20 04:57:49;;;;;;;0.70;0.70;;;5.30;99.90;;;;;;5030844;28;20610;-56
2023/12/20 05:00:17;;;;;;;1.00;1.00;;;5.30;99.90;;;;;;5031264;28;20210;-55
2023/12/20 05:02:45;;;;;;;1.08;1.02;;;5.30;99.90;;;;;;5031104;28;20676;-55
2023/12/20 05:05:14;;;;;;;0.73;0.73;;;5.30;99.90;;;;;;5031202;28;20545;-56
2023/12/20 05:07:42;;;;;;;0.90;0.80;;;5.40;99.90;;;;;;5030955;28;20226;-55
2023/12/20 05:10:11;;;;;;;0.98;0.90;;;5.40;99.90;;;;;;5031081;28;20646;-56
2023/12/20 05:12:39;;;;;;;1.63;0.90;;;5.50;99.90;;;;;;5029185;28;20351;-55
2023/12/20 05:15:09;;;;;;;1.08;0.93;;;5.50;99.90;;;;;;5030645;28;20214;-56
2023/12/20 05:17:37;;;;;;;1.08;0.90;;;5.50;99.90;;;;;;5030683;28;20296;-54
2023/12/20 05:20:06;;;;;;;1.92;0.88;;;5.60;99.90;;;;;;5031183;28;20260;-56
2023/12/20 05:22:34;;;;;;;1.77;0.90;;;5.60;99.90;;;;;;5023337;28;20290;-56
2023/12/20 05:25:02;;;;;;;1.10;0.82;;;5.60;99.90;;;;;;5031002;28;20615;-56
2023/12/20 05:27:29;;;;;;;3.97;1.10;;;5.60;99.90;;;;;;5030760;28;20237;-56
2023/12/20 05:29:57;;;;;;;3.30;1.90;;;5.60;99.90;;;;;;5030912;28;20213;-56
2023/12/20 05:32:27;;;;;;;3.97;1.63;;;5.50;99.90;;;;;;5031008;28;20207;-55
2023/12/20 05:34:55;;;;;;;2.92;1.00;;;5.50;99.90;;;;;;5031073;28;20633;-56
2023/12/20 05:37:23;;;;;;;2.58;0.75;;;5.40;99.90;;;;;;5030614;28;20222;-55
2023/12/20 05:39:51;;;;;;;6.03;1.08;;;5.40;99.90;;;;;;5024405;28;20736;-55
2023/12/20 05:42:18;;;;;;;3.92;1.20;;;5.30;99.90;;;;;;5029382;28;20683;-56
2023/12/20 05:44:46;;;;;;;0.88;0.85;;;5.20;99.90;;;;;;5030310;28;20787;-56
2023/12/20 05:47:16;;;;;;;1.63;0.82;;;5.20;99.90;;;;;;5030408;28;20226;-56
2023/12/20 05:49:46;;;;;;;3.60;1.10;;;5.10;99.90;;;;;;5031082;28;20380;-55
2023/12/20 05:52:14;;;;;;;3.30;1.15;;;5.10;99.90;;;;;;5030482;28;20223;-54
2023/12/20 05:54:42;;;;;;;3.60;0.98;;;5.00;99.90;;;;;;5030785;28;20207;-55
2023/12/20 05:57:10;;;;;;;8.40;1.25;;;5.00;99.90;;;;;;5026205;28;20235;-55
2023/12/20 05:59:38;;;;;;;1.25;0.90;;;5.00;99.90;;;;;;5030693;28;20211;-56
2023/12/20 06:02:05;;;;;;;3.20;1.00;;;5.00;99.90;;;;;;5030469;28;20668;-57
2023/12/20 06:04:33;;;;;;;3.10;0.85;;;5.00;99.90;;;;;;5030394;28;20647;-56
2023/12/20 06:07:03;;;;;;;1.00;0.70;;;5.00;99.90;;;;;;5030322;28;20238;-55
2023/12/20 06:09:31;;;;;;;3.47;0.70;;;5.00;99.90;;;;;;5031957;28;20202;-55
2023/12/20 06:11:59;;;;;;;2.90;0.77;;;4.90;99.90;;;;;;5038181;28;20276;-55
2023/12/20 06:14:27;;;;;;;2.83;0.80;;;4.90;99.90;;;;;;5041687;28;20233;-55
2023/12/20 06:16:54;;;;;;;5.45;0.80;;;4.90;99.90;;;;;;5046590;28;20207;-56
2023/12/20 06:19:22;;;;;;;2.55;0.75;;;4.80;99.90;;;;;;5034078;28;20245;-55
2023/12/20 06:21:50;;;;;;;1.42;0.70;;;4.80;99.90;;;;;;5033931;28;20676;-56
2023/12/20 06:24:20;;;;;;;2.15;1.27;;;4.70;99.90;;;;;;5033676;28;20667;-55
2023/12/20 06:26:47;;;;;;;4.57;1.00;;;4.70;99.90;;;;;;5033838;28;20242;-55
2023/12/20 06:29:15;;;;;;;2.90;0.80;;;4.60;99.90;;;;;;5033794;28;20238;-56
2023/12/20 06:31:43;;;;;;;4.22;1.10;;;4.50;99.90;;;;;;5033732;28;20321;-55
2023/12/20 06:34:11;;;;;;;2.10;1.35;;;4.40;99.90;;;;;;5034372;28;20207;-55
2023/12/20 06:36:39;;;;;;;4.78;1.40;;;4.40;99.90;;;;;;5033169;28;20238;-55
2023/12/20 06:39:07;;;;;;;3.17;0.80;;;4.30;99.90;;;;;;5030051;28;20250;-55
2023/12/20 06:41:36;;;;;;;4.70;1.77;;;4.30;99.90;;;;;;5034499;28;20309;-54
2023/12/20 06:44:04;;;;;;;3.42;2.22;;;4.30;99.90;;;;;;5033670;28;20285;-56
2023/12/20 06:46:31;;;;;;;9.45;2.53;;;4.20;99.90;;;;;;5032989;28;20213;-56
2023/12/20 06:48:59;;;;;;;5.88;2.40;;;4.20;99.90;;;;;;5033299;28;20258;-56
2023/12/20 06:51:27;;;;;;;5.75;2.38;;;4.20;99.90;;;;;;5033151;28;20292;-57
2023/12/20 06:53:55;;;;;;;4.30;2.35;;;4.20;99.90;;;;;;5033758;28;20285;-57
2023/12/20 06:56:23;;;;;;;6.30;2.78;;;4.10;99.90;;;;;;5032432;28;20688;-56
2023/12/20 06:58:52;;;;;;;4.57;2.00;;;4.10;99.90;;;;;;5033375;28;20231;-56
2023/12/20 07:01:20;;;;;;;6.93;2.25;;;4.00;99.90;;;;;;5033118;28;20302;-56
2023/12/20 07:03:48;;;;;;;3.42;1.75;;;4.00;99.90;;;;;;5033404;28;20207;-56
2023/12/20 07:06:16;;;;;;;6.00;1.70;;;4.00;99.90;;;;;;5032722;28;20203;-56
2023/12/20 07:08:44;;;;;;;1.92;1.73;;;3.90;99.90;;;;;;5033205;28;20610;-55
2023/12/20 07:11:12;;;;;;;2.25;1.70;;;3.90;99.90;;;;;;5032769;28;20723;-56
2023/12/20 07:13:40;;;;;;;4.10;1.52;;;3.90;99.90;;;;;;5033654;28;20233;-56
2023/12/20 07:16:09;;;;;;;3.28;1.30;;;3.90;99.90;;;;;;5032572;28;20246;-56
2023/12/20 07:18:37;;;;;;;4.53;1.15;;;3.90;99.90;;;;;;5033050;28;20222;-56
2023/12/20 07:21:07;;;;;;;3.03;1.25;;;3.90;99.90;;;;;;5032545;28;20207;-56
2023/12/20 07:23:35;;;;;;;1.85;1.20;;;3.90;99.90;;;;;;5032890;28;20253;-54
2023/12/20 07:26:04;;;;;;;6.28;1.17;;;3.90;99.90;;;;;;5032630;28;20301;-55
2023/12/20 07:28:32;;;;;;;4.18;1.70;;;3.90;99.90;;;;;;5032542;28;20257;-57
2023/12/20 07:31:00;;;;;;;2.60;1.40;;;3.80;99.90;;;;;;5032570;28;20657;-58
2023/12/20 07:33:29;;;;;;;2.15;1.25;;;3.90;99.90;;;;;;5031648;28;20846;-56
2023/12/20 07:36:06;;;;;;;5.47;1.45;;;3.90;99.90;;;;;;5027532;28;20215;-57
2023/12/20 07:38:34;;;;;;;5.07;1.45;;;3.90;99.90;;;;;;5028435;28;20227;-57
2023/12/20 07:41:02;;;;;;;5.88;1.77;;;4.00;99.90;;;;;;5026297;28;20264;-57
2023/12/20 07:43:30;;;;;;;5.78;1.80;;;3.90;99.90;;;;;;5025030;28;20297;-58
2023/12/20 07:45:57;;;;;;;4.63;1.95;;;4.00;99.90;;;;;;5029475;28;20206;-57
2023/12/20 07:48:25;;;;;;;7.72;1.77;;;4.00;99.90;;;;;;5029415;28;20313;-56
2023/12/20 07:50:54;;;;;;;5.43;2.10;;;4.00;99.90;;;;;;5027061;28;20665;-56
2023/12/20 07:53:22;;;;;;;3.97;1.70;;;4.10;99.90;;;;;;5027797;28;20655;-55
2023/12/20 07:55:52;;;;;;;7.00;1.83;;;4.10;99.90;;;;;;5028187;28;20313;-56
2023/12/20 07:58:20;;;;;;;2.83;1.63;;;4.10;99.90;;;;;;5030027;28;20248;-57
2023/12/20 08:00:52;;;;;;;5.07;1.30;;;4.20;99.90;;;;;;5030353;28;20213;-57
2023/12/20 08:03:20;;;;;;;3.40;0.82;;;4.20;99.90;;;;;;5031211;28;20603;-57
2023/12/20 08:05:47;;;;;;;2.45;0.93;;;4.20;99.90;;;;;;5029065;28;20639;-57
2023/12/20 08:08:17;;;;;;;7.80;1.30;;;4.30;99.90;;;;;;5027918;28;20357;-58
2023/12/20 08:10:45;;;;;;;4.28;1.02;;;4.40;99.90;;;;;;5030794;28;20206;-57
2023/12/20 08:13:13;;;;;;;4.65;1.30;;;4.50;99.90;;;;;;5029007;28;20258;-58
2023/12/20 08:15:41;;;;;;;4.95;0.90;;;4.50;99.90;;;;;;5024393;28;20202;-56
2023/12/20 08:18:09;;;;;;;3.67;1.17;;;4.50;99.90;;;;;;5026372;28;20654;-56
2023/12/20 08:20:37;;;;;;;4.22;1.20;;;4.60;99.90;;;;;;5031234;28;20210;-57
2023/12/20 08:23:08;;;;;;;8.65;1.05;;;4.60;99.90;;;;;;5031238;28;20632;-58
2023/12/20 08:25:37;;;;;;;2.97;1.35;;;4.70;99.90;;;;;;5030621;28;20213;-57
2023/12/20 08:28:05;;;;;;;6.45;1.23;;;4.70;99.90;;;;;;5031018;28;20257;-55
2023/12/20 08:30:33;;;;;;;4.60;1.10;;;4.80;99.90;;;;;;5031137;28;20217;-56
2023/12/20 08:33:02;;;;;;;3.67;1.30;;;4.80;99.90;;;;;;5030531;28;20222;-57
2023/12/20 08:35:30;;;;;;;4.05;1.27;;;4.90;99.90;;;;;;5030367;28;20634;-57
2023/12/20 08:37:58;;;;;;;4.15;1.30;;;4.90;99.90;;;;;;5030785;28;20222;-56
2023/12/20 08:40:26;;;;;;;4.32;1.30;;;5.00;99.90;;;;;;5028908;28;20252;-54
2023/12/20 08:42:55;;;;;;;5.70;1.00;;;5.10;99.90;;;;;;5031241;28;20199;-58
2023/12/20 08:45:23;;;;;;;5.10;1.42;;;5.20;99.90;;;;;;5030742;28;20206;-56
2023/12/20 08:47:51;;;;;;;2.80;1.27;;;5.20;99.90;;;;;;5030499;28;20231;-56
2023/12/20 08:50:20;;;;;;;4.38;1.50;;;5.30;99.90;;;;;;5031065;28;20309;-57
2023/12/20 08:52:47;;;;;;;4.43;1.27;;;5.40;99.90;;;;;;5022886;28;20222;-58
2023/12/20 08:55:17;;;;;;;9.10;1.27;;;5.40;99.90;;;;;;5029865;28;20630;-59
2023/12/20 08:57:45;;;;;;;3.70;1.50;;;5.40;99.90;;;;;;5029710;28;20309;-57
2023/12/20 09:00:17;;;;;;;6.30;1.27;;;5.50;99.90;;;;;;5028030;28;20214;-57
2023/12/20 09:02:45;;;;;;;9.30;1.95;;;5.50;99.90;;;;;;5023500;28;20203;-59
2023/12/20 09:05:13;;;;;;;6.43;1.23;;;5.60;99.90;;;;;;5028723;28;20741;-59
2023/12/20 09:07:41;;;;;;;5.97;1.58;;;5.60;99.90;;;;;;5027424;28;20323;-59
2023/12/20 09:10:09;;;;;;;5.13;1.20;;;5.70;99.90;;;;;;5027753;28;20217;-58
2023/12/20 09:12:39;;;;;;;6.07;1.40;;;5.70;99.90;;;;;;5029838;28;20223;-59
2023/12/20 09:15:08;;;;;;;10.02;1.25;;;5.70;99.90;;;;;;5023505;28;20214;-58
2023/12/20 09:17:37;;;;;;;6.45;1.20;;;5.80;99.90;;;;;;5053286;22;20334;-71
2023/12/20 09:20:07;;;;;;;7.22;1.23;;;5.80;99.90;;;;;;5010417;28;20206;-72
2023/12/20 09:22:35;;;;;;;6.03;1.35;;;5.90;99.90;;;;;;5018689;28;20234;-71
2023/12/20 09:25:03;;;;;;;8.88;1.58;;;6.00;99.90;;;;;;5010346;28;20657;-71
2023/12/20 09:27:31;;;;;;;11.82;1.92;;;6.00;99.90;;;;;;5010229;28;20211;-71
2023/12/20 09:30:00;;;;;;;4.70;1.25;;;6.10;99.90;;;;;;5010780;28;20269;-71
2023/12/20 09:32:27;;;;;;;6.07;1.23;;;6.10;99.90;;;;;;5010566;28;20731;-71
2023/12/20 09:34:57;;;;;;;8.40;1.42;;;6.20;99.90;;;;;;5010677;28;20206;-71
2023/12/20 09:37:27;;;;;;;5.35;1.10;;;6.20;99.90;;;;;;5009919;28;20327;-70
2023/12/20 09:39:55;;;;;;;3.88;1.40;;;6.20;99.90;;;;;;5009887;28;20207;-71
2023/12/20 09:42:25;;;;;;;7.13;1.52;;;6.30;99.90;;;;;;5010962;28;20651;-71
2023/12/20 09:44:53;;;;;;;3.50;1.25;;;6.30;99.90;;;;;;5005894;28;20199;-72
2023/12/20 09:47:21;;;;;;;10.40;1.50;;;6.40;99.90;;;;;;5006374;28;20238;-71
2023/12/20 09:49:49;;;;;;;7.80;1.40;;;6.40;99.90;;;;;;5014370;28;20207;-72
2023/12/20 09:52:18;;;;;;;8.45;1.88;;;6.40;99.90;;;;;;5006580;28;20208;-72
2023/12/20 09:54:47;;;;;;;5.78;1.75;;;6.50;99.90;;;;;;5014377;28;20204;-71
2023/12/20 09:57:14;;;;;;;7.63;1.27;;;6.50;99.90;;;;;;5014294;28;20780;-72
2023/12/20 09:59:42;;;;;;;6.85;1.55;;;6.50;99.90;;;;;;5014354;28;20231;-71
2023/12/20 10:02:11;;;;;;;6.22;1.30;;;6.60;99.90;;;;;;5014441;28;20255;-71
2023/12/20 10:04:39;;;;;;;9.85;1.52;;;6.60;99.90;;;;;;5014036;28;20207;-72
2023/12/20 10:07:08;;;;;;;6.10;1.35;;;6.60;99.90;;;;;;5008191;28;20410;-72
2023/12/20 10:09:37;;;;;;;4.22;1.55;;;6.60;99.90;;;;;;5010813;28;20211;-72
2023/12/20 10:12:07;;;;;;;5.78;1.20;;;6.60;99.90;;;;;;5007766;28;20731;-72
2023/12/20 10:14:35;;;;;;;3.22;1.25;;;6.60;99.90;;;;;;5013806;28;20270;-71
2023/12/20 10:17:06;;;;;;;4.32;1.15;;;6.60;99.90;;;;;;5013734;28;20299;-71
2023/12/20 10:19:34;;;;;;;7.85;1.80;;;6.50;99.90;;;;;;5013535;28;20215;-71
2023/12/20 10:22:05;;;;;;;9.40;1.38;;;6.50;99.90;;;;;;5014202;28;20273;-71
2023/12/20 10:24:33;;;;;;;5.65;1.30;;;6.60;99.90;;;;;;5013591;28;20211;-71
2023/12/20 10:27:06;;;;;;;5.35;1.38;;;6.60;99.90;;;;;;5014203;28;20235;-71
2023/12/20 10:29:35;;;;;;;13.02;2.20;;;6.70;99.90;;;;;;5013885;28;20239;-71
2023/12/20 10:32:24;;;;;;;9.48;1.90;;;6.70;99.90;;;;;;5014013;28;20259;-71
2023/12/20 10:34:52;;;;;;;4.82;1.40;;;6.70;99.90;;;;;;5005417;28;20227;-72
2023/12/20 10:37:20;;;;;;;7.53;1.75;;;6.80;99.90;;;;;;5005897;28;20206;-72
2023/12/20 10:39:50;;;;;;;5.15;1.42;;;6.80;99.90;;;;;;5012740;28;20258;-72
2023/12/20 10:42:20;;;;;;;6.00;1.05;;;6.90;99.90;;;;;;5013829;28;20203;-72
2023/12/20 10:44:48;;;;;;;7.22;1.63;;;7.10;99.90;;;;;;5005702;28;20270;-72
2023/12/20 10:47:16;;;;;;;10.07;1.70;;;7.40;99.90;;;;;;5005312;28;20655;-72
2023/12/20 10:49:44;;;;;;;6.00;1.55;;;7.50;99.90;;;;;;5013409;28;20758;-71
2023/12/20 10:52:12;;;;;;;8.43;1.42;;;7.60;99.90;;;;;;5005064;28;20712;-72
2023/12/20 10:54:41;;;;;;;10.52;1.63;;;7.70;99.90;;;;;;5008779;28;20235;-72
2023/12/20 10:57:08;;;;;;;7.47;1.52;;;7.70;99.90;;;;;;5012910;28;20207;-72
2023/12/20 10:59:39;;;;;;;6.80;1.38;;;7.60;99.90;;;;;;5015065;28;20566;-72
2023/12/20 11:02:07;;;;;;;5.40;1.48;;;7.60;99.90;;;;;;5012905;28;20258;-72
2023/12/20 11:04:40;;;;;;;4.43;1.58;;;7.70;99.90;;;;;;5012877;28;20739;-72
2023/12/20 11:07:14;;;;;;;10.20;1.98;;;7.70;99.90;;;;;;5004927;28;20266;-71
2023/12/20 11:09:44;;;;;;;5.30;1.30;;;7.80;99.90;;;;;;5013275;28;20230;-72
2023/12/20 11:12:16;;;;;;;8.35;1.60;;;7.80;99.90;;;;;;5013338;28;20295;-72
2023/12/20 11:14:47;;;;;;;4.88;1.20;;;7.80;99.90;;;;;;5005887;28;20257;-72
2023/12/20 11:17:17;;;;;;;6.32;1.48;;;7.70;99.90;;;;;;5013486;28;20199;-72
2023/12/20 11:20:07;;;;;;;6.05;1.60;;;7.70;99.90;;;;;;5021812;28;20285;-72
2023/12/20 11:22:35;;;;;;;9.18;3.00;;;7.60;99.90;;;;;;5012768;28;20258;-72
2023/12/20 11:25:09;;;;;;;6.40;1.60;;;7.60;99.90;;;;;;5012745;28;20206;-72
2023/12/20 11:27:37;;;;;;;5.40;2.08;;;7.60;99.90;;;;;;5012675;28;20211;-72
2023/12/20 11:30:09;;;;;;;6.65;1.50;;;7.50;99.90;;;;;;5017629;28;20751;-72
2023/12/20 11:32:37;;;;;;;8.23;1.90;;;7.50;99.90;;;;;;4996104;28;20270;-72
2023/12/20 11:35:19;;;;;;;8.93;1.77;;;7.50;99.90;;;;;;5012567;28;20230;-71
2023/12/20 11:37:48;;;;;;;4.78;1.10;;;7.50;99.90;;;;;;5012331;28;20216;-72
2023/12/20 11:40:17;;;;;;;5.38;1.27;;;7.50;99.90;;;;;;5006974;28;20226;-72
2023/12/20 11:42:45;;;;;;;9.10;1.63;;;7.60;99.90;;;;;;5011974;28;20243;-71
2023/12/20 11:45:16;;;;;;;5.60;1.40;;;7.70;99.90;;;;;;5003967;28;20214;-72
2023/12/20 11:47:45;;;;;;;5.05;1.10;;;7.70;99.90;;;;;;5019161;28;20202;-72
2023/12/20 11:50:13;;;;;;;2.67;1.40;;;7.90;99.90;;;;;;5012870;28;20228;-71
2023/12/20 11:52:41;;;;;;;4.35;1.30;;;7.90;99.90;;;;;;5013016;28;20290;-72
2023/12/20 11:55:09;;;;;;;5.05;1.55;;;7.90;99.90;;;;;;5011953;28;20247;-72
2023/12/20 11:57:37;;;;;;;4.97;1.80;;;7.80;99.90;;;;;;5013651;28;20217;-71
2023/12/20 12:00:07;;;;;;;5.93;1.35;;;7.80;99.90;;;;;;5019302;28;20280;-72
2023/12/20 12:02:37;;;;;;;4.75;1.65;;;7.80;99.90;;;;;;5022878;28;20210;-72
2023/12/20 12:05:06;;;;;;;3.85;1.42;;;7.70;99.90;;;;;;5011955;28;20274;-71
2023/12/20 12:07:34;;;;;;;8.00;1.70;;;7.70;99.90;;;;;;5012280;28;20249;-71
2023/12/20 12:10:03;;;;;;;5.65;1.75;;;7.70;99.90;;;;;;5010756;28;20207;-72
2023/12/20 12:12:32;;;;;;;5.28;1.88;;;7.70;99.90;;;;;;5017060;28;20293;-72
2023/12/20 12:15:00;;;;;;;9.20;1.75;;;7.60;99.90;;;;;;5008127;28;20226;-71
2023/12/20 12:17:28;;;;;;;5.93;1.30;;;7.60;99.90;;;;;;5014266;28;20310;-72
2023/12/20 12:20:05;;;;;;;4.82;1.70;;;7.60;99.90;;;;;;5010984;28;20209;-72
2023/12/20 12:22:33;;;;;;;5.43;1.80;;;7.60;99.90;;;;;;5011149;28;20710;-72
2023/12/20 12:25:10;;;;;;;5.88;1.13;;;7.60;99.90;;;;;;5003675;28;20282;-72
2023/12/20 12:27:41;;;;;;;5.20;1.50;;;7.70;99.90;;;;;;5011545;28;20669;-72
2023/12/20 12:30:10;;;;;;;8.45;1.73;;;7.80;99.90;;;;;;5003421;28;20316;-71
2023/12/20 12:32:39;;;;;;;4.90;1.75;;;7.90;99.90;;;;;;5011381;28;20211;-72
2023/12/20 12:35:09;;;;;;;5.00;1.40;;;8.00;99.90;;;;;;5011471;28;20246;-72
2023/12/20 12:37:39;;;;;;;6.10;1.90;;;8.00;99.90;;;;;;5007360;28;20227;-72
2023/12/20 12:40:10;;;;;;;2.67;1.10;;;8.10;99.90;;;;;;5012164;28;20690;-72
2023/12/20 12:42:38;;;;;;;6.88;2.00;;;8.20;99.90;;;;;;5011488;28;20211;-71
2023/12/20 12:45:07;;;;;;;5.80;1.63;;;8.20;99.90;;;;;;5011118;28;20254;-72
2023/12/20 12:47:35;;;;;;;4.90;1.30;;;8.30;99.90;;;;;;5010872;28;20294;-71
2023/12/20 12:50:03;;;;;;;5.78;1.75;;;8.30;99.90;;;;;;5008978;28;20715;-72
2023/12/20 12:52:33;;;;;;;8.85;1.85;;;8.30;99.90;;;;;;5018555;28;20250;-73
2023/12/20 12:55:01;;;;;;;5.95;1.35;;;8.20;99.90;;;;;;5003303;28;20711;-72
2023/12/20 12:57:28;;;;;;;6.57;1.83;;;8.20;99.90;;;;;;5015666;28;20207;-72
2023/12/20 12:59:58;;;;;;;7.35;2.40;;;8.20;99.90;;;;;;5009508;28;20297;-72
2023/12/20 13:02:26;;;;;;;7.75;2.30;;;8.30;99.90;;;;;;5003059;28;20253;-72
2023/12/20 13:04:53;;;;;;;8.65;1.55;;;8.30;99.90;;;;;;5011020;28;20234;-72